Hauptseite
METAR-TAF:

METAR-TAF

Flughäfen :

Flughafen Recife

Recife, Pernambuco, Brasilien

Breite: 08-08S, Länge: 034-55W, Höhe: 19 m

Beobachtung

Neuester Wetterbericht von vor 40 Minuten, um 04:00 UTC
Wind 6 kt aus Süd/Südost
Temperatur 26°C
Luftfeuchtigkeit 84%
Luftdruck 1014 hPa
Sichtweite 10 km oder mehr
Aufgelockert bewölkt in der Höhe von 1800 ft

METAR: SBRF 160400Z 15006KT 9999 SCT018 26/23 Q1014

Zeit: 01:40 (04:40 UTC)

Prognose

Neuester Wetterbericht von vor 6 Stunden und 40 Minuten, um 22:00 UTC
Gültige Prognose vom 16 um 00 UTC bis 16 um 24 UTC
Wind 10 kt aus Süd/Südost
Sichtweite: 8000 m
Aufgelockert bewölkt in der Höhe von 2000 ft

TAF: SBRF 152200Z 1600/1624 15010KT 8000 SCT020 TN24/1608Z TX30/1614Z RMK PEU

Wetterbeobachtungen und Prognosen von mehr als 4000 Flughäfen (METAR und TAF Bericht).

Die verfügbaren Stationen werden durch gelbe und rote Markierungen auf der Karte dargestellt.

Führen Sie die Maus auf sie, um den Namen der Station zu sehen.

Darauf klicken, um die Beobachtung von Wetterbeobachtungen und Prognosen zu sehen.

Um die Karte zu ändern : klicken Sie auf den grünen Tasten mit einem schwarzen Kreuz Zum Vergrößern, auf den grünen Button mit einem Gedankenstrich zu verkleinern, oder auf die grünen Pfeile für benachbarte Karten.


METAR-TAF: